sensor_id;sensor_type;location;lat;lon;timestamp;temperature;humidity
68485;DHT22;55472;50.060;21.960;2024-02-04T00:02:05;6.50;99.90
68485;DHT22;55472;50.060;21.960;2024-02-04T00:04:33;6.50;99.90
68485;DHT22;55472;50.060;21.960;2024-02-04T00:07:00;6.50;99.90
68485;DHT22;55472;50.060;21.960;2024-02-04T00:09:26;6.50;99.90
68485;DHT22;55472;50.060;21.960;2024-02-04T00:11:54;6.50;99.90
68485;DHT22;55472;50.060;21.960;2024-02-04T00:14:20;6.50;99.90
68485;DHT22;55472;50.060;21.960;2024-02-04T00:16:46;6.60;99.90
68485;DHT22;55472;50.060;21.960;2024-02-04T00:19:12;6.60;99.90
68485;DHT22;55472;50.060;21.960;2024-02-04T00:21:39;6.60;99.90
68485;DHT22;55472;50.060;21.960;2024-02-04T00:24:05;6.70;99.90
68485;DHT22;55472;50.060;21.960;2024-02-04T00:26:31;6.70;99.90
68485;DHT22;55472;50.060;21.960;2024-02-04T00:28:57;6.60;99.90
68485;DHT22;55472;50.060;21.960;2024-02-04T00:31:24;6.60;99.90
68485;DHT22;55472;50.060;21.960;2024-02-04T00:33:50;6.60;99.90
68485;DHT22;55472;50.060;21.960;2024-02-04T00:36:16;6.60;99.90
68485;DHT22;55472;50.060;21.960;2024-02-04T00:38:43;6.60;99.90
68485;DHT22;55472;50.060;21.960;2024-02-04T00:41:09;6.60;99.90
68485;DHT22;55472;50.060;21.960;2024-02-04T00:43:35;6.50;99.90
68485;DHT22;55472;50.060;21.960;2024-02-04T00:46:02;6.50;99.90
68485;DHT22;55472;50.060;21.960;2024-02-04T00:48:28;6.40;99.90
68485;DHT22;55472;50.060;21.960;2024-02-04T00:50:54;6.40;99.90
68485;DHT22;55472;50.060;21.960;2024-02-04T00:53:20;6.40;99.90
68485;DHT22;55472;50.060;21.960;2024-02-04T00:55:47;6.40;99.90
68485;DHT22;55472;50.060;21.960;2024-02-04T00:58:13;6.40;99.90
68485;DHT22;55472;50.060;21.960;2024-02-04T01:00:39;6.40;99.90
68485;DHT22;55472;50.060;21.960;2024-02-04T01:03:05;6.40;99.90
68485;DHT22;55472;50.060;21.960;2024-02-04T01:05:31;6.40;99.90
68485;DHT22;55472;50.060;21.960;2024-02-04T01:07:57;6.40;99.90
68485;DHT22;55472;50.060;21.960;2024-02-04T01:10:23;6.40;99.90
68485;DHT22;55472;50.060;21.960;2024-02-04T01:12:49;6.40;99.90
68485;DHT22;55472;50.060;21.960;2024-02-04T01:15:15;6.40;99.90
68485;DHT22;55472;50.060;21.960;2024-02-04T01:17:41;6.40;99.90
68485;DHT22;55472;50.060;21.960;2024-02-04T01:20:08;6.50;99.90
68485;DHT22;55472;50.060;21.960;2024-02-04T01:22:35;6.50;99.90
68485;DHT22;55472;50.060;21.960;2024-02-04T01:25:01;6.50;99.90
68485;DHT22;55472;50.060;21.960;2024-02-04T01:27:27;6.50;99.90
68485;DHT22;55472;50.060;21.960;2024-02-04T01:29:53;6.50;99.90
68485;DHT22;55472;50.060;21.960;2024-02-04T01:32:19;6.50;99.90
68485;DHT22;55472;50.060;21.960;2024-02-04T01:34:45;6.50;99.90
68485;DHT22;55472;50.060;21.960;2024-02-04T01:37:11;6.50;99.90
68485;DHT22;55472;50.060;21.960;2024-02-04T01:39:38;6.50;99.90
68485;DHT22;55472;50.060;21.960;2024-02-04T01:42:04;6.50;99.90
68485;DHT22;55472;50.060;21.960;2024-02-04T01:44:31;6.50;99.90
68485;DHT22;55472;50.060;21.960;2024-02-04T01:46:57;6.50;99.90
68485;DHT22;55472;50.060;21.960;2024-02-04T01:49:24;6.50;99.90
68485;DHT22;55472;50.060;21.960;2024-02-04T01:51:51;6.50;99.90
68485;DHT22;55472;50.060;21.960;2024-02-04T01:54:19;6.50;99.90
68485;DHT22;55472;50.060;21.960;2024-02-04T01:56:49;6.50;99.90
68485;DHT22;55472;50.060;21.960;2024-02-04T01:59:16;6.40;99.90
68485;DHT22;55472;50.060;21.960;2024-02-04T02:01:43;6.50;99.90
68485;DHT22;55472;50.060;21.960;2024-02-04T02:04:10;6.50;99.90
68485;DHT22;55472;50.060;21.960;2024-02-04T02:06:36;6.40;99.90
68485;DHT22;55472;50.060;21.960;2024-02-04T02:09:07;6.40;99.90
68485;DHT22;55472;50.060;21.960;2024-02-04T02:11:46;6.40;99.90
68485;DHT22;55472;50.060;21.960;2024-02-04T02:14:18;6.40;99.90
68485;DHT22;55472;50.060;21.960;2024-02-04T02:16:46;6.50;99.90
68485;DHT22;55472;50.060;21.960;2024-02-04T02:19:44;6.50;99.90
68485;DHT22;55472;50.060;21.960;2024-02-04T02:22:29;6.50;99.90
68485;DHT22;55472;50.060;21.960;2024-02-04T02:25:02;6.50;99.90
68485;DHT22;55472;50.060;21.960;2024-02-04T02:27:30;6.50;99.90
68485;DHT22;55472;50.060;21.960;2024-02-04T02:29:57;6.60;99.90
68485;DHT22;55472;50.060;21.960;2024-02-04T02:32:23;6.50;99.90
68485;DHT22;55472;50.060;21.960;2024-02-04T02:34:50;6.50;99.90
68485;DHT22;55472;50.060;21.960;2024-02-04T02:37:43;6.50;99.90
68485;DHT22;55472;50.060;21.960;2024-02-04T02:42:47;6.60;99.90
68485;DHT22;55472;50.060;21.960;2024-02-04T02:45:16;6.60;99.90
68485;DHT22;55472;50.060;21.960;2024-02-04T02:47:43;6.60;99.90
68485;DHT22;55472;50.060;21.960;2024-02-04T02:50:10;6.60;99.90
68485;DHT22;55472;50.060;21.960;2024-02-04T02:52:37;6.60;99.90
68485;DHT22;55472;50.060;21.960;2024-02-04T02:55:03;6.60;99.90
68485;DHT22;55472;50.060;21.960;2024-02-04T02:57:30;6.60;99.90
68485;DHT22;55472;50.060;21.960;2024-02-04T02:59:56;6.60;99.90
68485;DHT22;55472;50.060;21.960;2024-02-04T03:02:22;6.60;99.90
68485;DHT22;55472;50.060;21.960;2024-02-04T03:04:48;6.60;99.90
68485;DHT22;55472;50.060;21.960;2024-02-04T03:07:14;6.60;99.90
68485;DHT22;55472;50.060;21.960;2024-02-04T03:09:41;6.60;99.90
68485;DHT22;55472;50.060;21.960;2024-02-04T03:12:07;6.70;99.90
68485;DHT22;55472;50.060;21.960;2024-02-04T03:14:33;6.70;99.90
68485;DHT22;55472;50.060;21.960;2024-02-04T03:16:59;6.70;99.90
68485;DHT22;55472;50.060;21.960;2024-02-04T03:19:25;6.70;99.90
68485;DHT22;55472;50.060;21.960;2024-02-04T03:21:51;6.70;99.90
68485;DHT22;55472;50.060;21.960;2024-02-04T03:24:17;6.70;99.90
68485;DHT22;55472;50.060;21.960;2024-02-04T03:26:43;6.70;99.90
68485;DHT22;55472;50.060;21.960;2024-02-04T03:29:10;6.70;99.90
68485;DHT22;55472;50.060;21.960;2024-02-04T03:31:36;6.70;99.90
68485;DHT22;55472;50.060;21.960;2024-02-04T03:34:02;6.70;99.90
68485;DHT22;55472;50.060;21.960;2024-02-04T03:36:28;6.70;99.90
68485;DHT22;55472;50.060;21.960;2024-02-04T03:38:54;6.70;99.90
68485;DHT22;55472;50.060;21.960;2024-02-04T03:41:20;6.70;99.90
68485;DHT22;55472;50.060;21.960;2024-02-04T03:43:46;6.70;99.90
68485;DHT22;55472;50.060;21.960;2024-02-04T03:46:16;6.70;99.90
68485;DHT22;55472;50.060;21.960;2024-02-04T03:48:43;6.60;99.90
68485;DHT22;55472;50.060;21.960;2024-02-04T03:51:15;6.60;99.90
68485;DHT22;55472;50.060;21.960;2024-02-04T03:53:43;6.60;99.90
68485;DHT22;55472;50.060;21.960;2024-02-04T03:56:09;6.50;99.90
68485;DHT22;55472;50.060;21.960;2024-02-04T03:58:36;6.50;99.90
68485;DHT22;55472;50.060;21.960;2024-02-04T04:01:02;6.50;99.90
68485;DHT22;55472;50.060;21.960;2024-02-04T04:03:28;6.50;99.90
68485;DHT22;55472;50.060;21.960;2024-02-04T04:05:54;6.40;99.90
68485;DHT22;55472;50.060;21.960;2024-02-04T04:08:20;6.40;99.90
68485;DHT22;55472;50.060;21.960;2024-02-04T04:10:46;6.40;99.90
68485;DHT22;55472;50.060;21.960;2024-02-04T04:13:13;6.30;99.90
68485;DHT22;55472;50.060;21.960;2024-02-04T04:15:39;6.30;99.90
68485;DHT22;55472;50.060;21.960;2024-02-04T04:18:05;6.30;99.90
68485;DHT22;55472;50.060;21.960;2024-02-04T04:20:31;6.30;99.90
68485;DHT22;55472;50.060;21.960;2024-02-04T04:22:58;6.30;99.90
68485;DHT22;55472;50.060;21.960;2024-02-04T04:25:24;6.30;99.90
68485;DHT22;55472;50.060;21.960;2024-02-04T04:27:50;6.30;99.90
68485;DHT22;55472;50.060;21.960;2024-02-04T04:30:16;6.20;99.90
68485;DHT22;55472;50.060;21.960;2024-02-04T04:32:42;6.20;99.90
68485;DHT22;55472;50.060;21.960;2024-02-04T04:35:08;6.20;99.90
68485;DHT22;55472;50.060;21.960;2024-02-04T04:37:34;6.20;99.90
68485;DHT22;55472;50.060;21.960;2024-02-04T04:40:00;6.30;99.90
68485;DHT22;55472;50.060;21.960;2024-02-04T04:42:27;6.30;99.90
68485;DHT22;55472;50.060;21.960;2024-02-04T04:44:53;6.20;99.90
68485;DHT22;55472;50.060;21.960;2024-02-04T04:47:19;6.20;99.90
68485;DHT22;55472;50.060;21.960;2024-02-04T04:49:45;6.10;99.90
68485;DHT22;55472;50.060;21.960;2024-02-04T04:52:11;6.10;99.90
68485;DHT22;55472;50.060;21.960;2024-02-04T04:54:38;6.10;99.90
68485;DHT22;55472;50.060;21.960;2024-02-04T04:57:05;6.10;99.90
68485;DHT22;55472;50.060;21.960;2024-02-04T04:59:31;6.10;99.90
68485;DHT22;55472;50.060;21.960;2024-02-04T05:01:57;6.10;99.90
68485;DHT22;55472;50.060;21.960;2024-02-04T05:04:23;6.10;99.90
68485;DHT22;55472;50.060;21.960;2024-02-04T05:06:51;6.10;99.90
68485;DHT22;55472;50.060;21.960;2024-02-04T05:09:17;6.10;99.90
68485;DHT22;55472;50.060;21.960;2024-02-04T05:11:43;6.10;99.90
68485;DHT22;55472;50.060;21.960;2024-02-04T05:14:09;6.00;99.90
68485;DHT22;55472;50.060;21.960;2024-02-04T05:16:36;6.10;99.90
68485;DHT22;55472;50.060;21.960;2024-02-04T05:19:02;6.10;99.90
68485;DHT22;55472;50.060;21.960;2024-02-04T05:21:28;6.00;99.90
68485;DHT22;55472;50.060;21.960;2024-02-04T05:23:54;6.00;99.90
68485;DHT22;55472;50.060;21.960;2024-02-04T05:26:21;6.00;99.90
68485;DHT22;55472;50.060;21.960;2024-02-04T05:28:47;6.00;99.90
68485;DHT22;55472;50.060;21.960;2024-02-04T05:31:13;6.00;99.90
68485;DHT22;55472;50.060;21.960;2024-02-04T05:33:39;6.00;99.90
68485;DHT22;55472;50.060;21.960;2024-02-04T05:36:05;6.00;99.90
68485;DHT22;55472;50.060;21.960;2024-02-04T05:38:31;6.00;99.90
68485;DHT22;55472;50.060;21.960;2024-02-04T05:40:57;6.10;99.90
68485;DHT22;55472;50.060;21.960;2024-02-04T05:43:23;6.10;99.90
68485;DHT22;55472;50.060;21.960;2024-02-04T05:45:50;6.00;99.60
68485;DHT22;55472;50.060;21.960;2024-02-04T05:48:16;6.00;99.50
68485;DHT22;55472;50.060;21.960;2024-02-04T05:50:42;5.90;99.30
68485;DHT22;55472;50.060;21.960;2024-02-04T05:53:08;5.90;99.20
68485;DHT22;55472;50.060;21.960;2024-02-04T05:55:34;5.80;99.30
68485;DHT22;55472;50.060;21.960;2024-02-04T05:58:00;5.80;99.30
68485;DHT22;55472;50.060;21.960;2024-02-04T06:00:26;5.80;99.20
68485;DHT22;55472;50.060;21.960;2024-02-04T06:02:52;5.80;99.40
68485;DHT22;55472;50.060;21.960;2024-02-04T06:05:18;5.70;99.70
68485;DHT22;55472;50.060;21.960;2024-02-04T06:07:44;5.70;99.90
68485;DHT22;55472;50.060;21.960;2024-02-04T06:10:11;5.70;99.90
68485;DHT22;55472;50.060;21.960;2024-02-04T06:12:38;5.70;99.90
68485;DHT22;55472;50.060;21.960;2024-02-04T06:15:12;5.70;99.90
68485;DHT22;55472;50.060;21.960;2024-02-04T06:17:39;5.70;99.90
68485;DHT22;55472;50.060;21.960;2024-02-04T06:20:06;5.70;99.90
68485;DHT22;55472;50.060;21.960;2024-02-04T06:22:34;5.70;99.90
68485;DHT22;55472;50.060;21.960;2024-02-04T06:25:02;5.80;99.90
68485;DHT22;55472;50.060;21.960;2024-02-04T06:27:30;5.80;99.90
68485;DHT22;55472;50.060;21.960;2024-02-04T06:29:56;5.70;99.90
68485;DHT22;55472;50.060;21.960;2024-02-04T06:32:23;5.80;99.90
68485;DHT22;55472;50.060;21.960;2024-02-04T06:34:51;5.80;99.90
68485;DHT22;55472;50.060;21.960;2024-02-04T06:37:17;5.80;99.90
68485;DHT22;55472;50.060;21.960;2024-02-04T06:39:44;5.80;99.90
68485;DHT22;55472;50.060;21.960;2024-02-04T06:42:10;5.90;99.90
68485;DHT22;55472;50.060;21.960;2024-02-04T06:44:37;5.90;99.90
68485;DHT22;55472;50.060;21.960;2024-02-04T06:47:03;5.90;99.90
68485;DHT22;55472;50.060;21.960;2024-02-04T06:49:29;6.00;99.90
68485;DHT22;55472;50.060;21.960;2024-02-04T06:51:55;6.00;99.40
68485;DHT22;55472;50.060;21.960;2024-02-04T06:54:23;6.00;99.00
68485;DHT22;55472;50.060;21.960;2024-02-04T06:56:51;6.00;98.90
68485;DHT22;55472;50.060;21.960;2024-02-04T06:59:18;6.00;98.90
68485;DHT22;55472;50.060;21.960;2024-02-04T07:01:44;6.10;98.80
68485;DHT22;55472;50.060;21.960;2024-02-04T07:04:11;6.10;98.40
68485;DHT22;55472;50.060;21.960;2024-02-04T07:06:37;6.20;98.10
68485;DHT22;55472;50.060;21.960;2024-02-04T07:09:03;6.20;97.00
68485;DHT22;55472;50.060;21.960;2024-02-04T07:11:29;6.30;95.50
68485;DHT22;55472;50.060;21.960;2024-02-04T07:13:56;6.30;94.00
68485;DHT22;55472;50.060;21.960;2024-02-04T07:16:26;6.40;93.20
68485;DHT22;55472;50.060;21.960;2024-02-04T07:18:52;6.40;92.90
68485;DHT22;55472;50.060;21.960;2024-02-04T07:21:19;6.40;91.70
68485;DHT22;55472;50.060;21.960;2024-02-04T07:23:45;6.40;91.00
68485;DHT22;55472;50.060;21.960;2024-02-04T07:26:11;6.40;92.00
68485;DHT22;55472;50.060;21.960;2024-02-04T07:28:38;6.40;93.60
68485;DHT22;55472;50.060;21.960;2024-02-04T07:31:04;6.30;95.30
68485;DHT22;55472;50.060;21.960;2024-02-04T07:33:30;6.30;96.70
68485;DHT22;55472;50.060;21.960;2024-02-04T07:35:56;6.20;97.70
68485;DHT22;55472;50.060;21.960;2024-02-04T07:38:22;6.20;98.30
68485;DHT22;55472;50.060;21.960;2024-02-04T07:40:48;6.20;97.90
68485;DHT22;55472;50.060;21.960;2024-02-04T07:43:14;6.20;97.40
68485;DHT22;55472;50.060;21.960;2024-02-04T07:45:40;6.10;97.00
68485;DHT22;55472;50.060;21.960;2024-02-04T07:48:08;6.10;96.80
68485;DHT22;55472;50.060;21.960;2024-02-04T07:50:35;6.00;96.30
68485;DHT22;55472;50.060;21.960;2024-02-04T07:53:01;6.00;96.10
68485;DHT22;55472;50.060;21.960;2024-02-04T07:55:27;6.00;96.50
68485;DHT22;55472;50.060;21.960;2024-02-04T07:57:53;6.00;96.30
68485;DHT22;55472;50.060;21.960;2024-02-04T08:00:19;6.00;96.00
68485;DHT22;55472;50.060;21.960;2024-02-04T08:02:46;6.00;96.20
68485;DHT22;55472;50.060;21.960;2024-02-04T08:05:13;6.00;96.70
68485;DHT22;55472;50.060;21.960;2024-02-04T08:07:39;6.00;97.20
68485;DHT22;55472;50.060;21.960;2024-02-04T08:10:07;6.00;97.70
68485;DHT22;55472;50.060;21.960;2024-02-04T08:12:33;6.00;98.40
68485;DHT22;55472;50.060;21.960;2024-02-04T08:15:00;6.30;99.30
68485;DHT22;55472;50.060;21.960;2024-02-04T08:17:26;6.90;97.80
68485;DHT22;55472;50.060;21.960;2024-02-04T08:19:54;7.90;93.40
68485;DHT22;55472;50.060;21.960;2024-02-04T08:22:20;8.10;91.00
68485;DHT22;55472;50.060;21.960;2024-02-04T08:24:46;8.50;88.60
68485;DHT22;55472;50.060;21.960;2024-02-04T08:27:13;8.30;87.90
68485;DHT22;55472;50.060;21.960;2024-02-04T08:29:42;8.10;88.80
68485;DHT22;55472;50.060;21.960;2024-02-04T08:32:08;7.80;89.10
68485;DHT22;55472;50.060;21.960;2024-02-04T08:34:34;7.70;90.10
68485;DHT22;55472;50.060;21.960;2024-02-04T08:37:01;7.60;90.70
68485;DHT22;55472;50.060;21.960;2024-02-04T08:39:27;7.70;91.70
68485;DHT22;55472;50.060;21.960;2024-02-04T08:41:55;8.10;89.90
68485;DHT22;55472;50.060;21.960;2024-02-04T08:44:21;8.00;90.10
68485;DHT22;55472;50.060;21.960;2024-02-04T08:46:48;8.00;90.10
68485;DHT22;55472;50.060;21.960;2024-02-04T08:49:14;7.90;90.30
68485;DHT22;55472;50.060;21.960;2024-02-04T08:51:40;7.70;91.60
68485;DHT22;55472;50.060;21.960;2024-02-04T08:54:06;7.60;93.10
68485;DHT22;55472;50.060;21.960;2024-02-04T08:56:32;7.50;94.30
68485;DHT22;55472;50.060;21.960;2024-02-04T08:58:59;7.50;95.20
68485;DHT22;55472;50.060;21.960;2024-02-04T09:01:27;7.40;95.50
68485;DHT22;55472;50.060;21.960;2024-02-04T09:03:53;7.50;94.20
68485;DHT22;55472;50.060;21.960;2024-02-04T09:06:19;7.40;93.40
68485;DHT22;55472;50.060;21.960;2024-02-04T09:08:46;7.30;92.10
68485;DHT22;55472;50.060;21.960;2024-02-04T09:11:12;7.20;92.50
68485;DHT22;55472;50.060;21.960;2024-02-04T09:13:47;7.10;92.60
68485;DHT22;55472;50.060;21.960;2024-02-04T09:16:13;7.00;93.20
68485;DHT22;55472;50.060;21.960;2024-02-04T09:18:39;7.00;93.50
68485;DHT22;55472;50.060;21.960;2024-02-04T09:21:06;7.20;93.10
68485;DHT22;55472;50.060;21.960;2024-02-04T09:23:32;7.30;91.50
68485;DHT22;55472;50.060;21.960;2024-02-04T09:25:58;7.40;91.30
68485;DHT22;55472;50.060;21.960;2024-02-04T09:28:24;7.50;91.20
68485;DHT22;55472;50.060;21.960;2024-02-04T09:30:51;7.50;90.20
68485;DHT22;55472;50.060;21.960;2024-02-04T09:33:17;7.40;90.40
68485;DHT22;55472;50.060;21.960;2024-02-04T09:35:43;7.20;91.00
68485;DHT22;55472;50.060;21.960;2024-02-04T09:38:09;7.00;92.70
68485;DHT22;55472;50.060;21.960;2024-02-04T09:40:35;6.90;94.10
68485;DHT22;55472;50.060;21.960;2024-02-04T09:43:02;6.80;95.50
68485;DHT22;55472;50.060;21.960;2024-02-04T09:45:28;6.70;96.80
68485;DHT22;55472;50.060;21.960;2024-02-04T09:47:56;6.60;97.00
68485;DHT22;55472;50.060;21.960;2024-02-04T09:50:24;6.50;97.00
68485;DHT22;55472;50.060;21.960;2024-02-04T09:52:50;6.40;97.50
68485;DHT22;55472;50.060;21.960;2024-02-04T09:55:21;6.30;98.50
68485;DHT22;55472;50.060;21.960;2024-02-04T09:57:48;6.30;98.40
68485;DHT22;55472;50.060;21.960;2024-02-04T10:00:18;6.20;98.90
68485;DHT22;55472;50.060;21.960;2024-02-04T10:02:48;6.10;99.50
68485;DHT22;55472;50.060;21.960;2024-02-04T10:05:17;6.20;99.90
68485;DHT22;55472;50.060;21.960;2024-02-04T10:07:43;6.40;99.90
68485;DHT22;55472;50.060;21.960;2024-02-04T10:10:11;6.60;99.20
68485;DHT22;55472;50.060;21.960;2024-02-04T10:12:37;6.70;98.10
68485;DHT22;55472;50.060;21.960;2024-02-04T10:15:05;6.80;96.80
68485;DHT22;55472;50.060;21.960;2024-02-04T10:17:32;6.90;95.80
68485;DHT22;55472;50.060;21.960;2024-02-04T10:19:59;7.00;94.80
68485;DHT22;55472;50.060;21.960;2024-02-04T10:22:29;7.00;94.40
68485;DHT22;55472;50.060;21.960;2024-02-04T10:25:06;7.10;95.10
68485;DHT22;55472;50.060;21.960;2024-02-04T10:27:37;7.20;94.70
68485;DHT22;55472;50.060;21.960;2024-02-04T10:30:05;7.30;94.70
68485;DHT22;55472;50.060;21.960;2024-02-04T10:32:31;7.40;92.80
68485;DHT22;55472;50.060;21.960;2024-02-04T10:34:58;7.40;92.10
68485;DHT22;55472;50.060;21.960;2024-02-04T10:37:25;7.30;91.60
68485;DHT22;55472;50.060;21.960;2024-02-04T10:39:51;7.30;91.00
68485;DHT22;55472;50.060;21.960;2024-02-04T10:42:17;7.30;90.90
68485;DHT22;55472;50.060;21.960;2024-02-04T10:44:49;7.30;90.80
68485;DHT22;55472;50.060;21.960;2024-02-04T10:47:23;7.50;90.90
68485;DHT22;55472;50.060;21.960;2024-02-04T10:49:51;7.70;89.60
68485;DHT22;55472;50.060;21.960;2024-02-04T10:52:20;7.90;87.80
68485;DHT22;55472;50.060;21.960;2024-02-04T10:54:51;8.00;86.10
68485;DHT22;55472;50.060;21.960;2024-02-04T10:57:22;8.00;84.80
68485;DHT22;55472;50.060;21.960;2024-02-04T10:59:51;8.00;84.50
68485;DHT22;55472;50.060;21.960;2024-02-04T11:02:19;8.00;84.10
68485;DHT22;55472;50.060;21.960;2024-02-04T11:04:48;7.90;84.40
68485;DHT22;55472;50.060;21.960;2024-02-04T11:07:16;7.90;84.80
68485;DHT22;55472;50.060;21.960;2024-02-04T11:09:46;7.80;85.40
68485;DHT22;55472;50.060;21.960;2024-02-04T11:12:18;7.60;85.30
68485;DHT22;55472;50.060;21.960;2024-02-04T11:14:52;7.50;85.30
68485;DHT22;55472;50.060;21.960;2024-02-04T11:17:38;7.30;85.60
68485;DHT22;55472;50.060;21.960;2024-02-04T11:25:56;7.00;85.80
68485;DHT22;55472;50.060;21.960;2024-02-04T11:28:24;7.00;86.20
68485;DHT22;55472;50.060;21.960;2024-02-04T11:30:51;7.10;85.70
68485;DHT22;55472;50.060;21.960;2024-02-04T11:33:19;7.40;85.70
68485;DHT22;55472;50.060;21.960;2024-02-04T11:35:46;7.50;84.00
68485;DHT22;55472;50.060;21.960;2024-02-04T11:38:17;7.70;81.60
68485;DHT22;55472;50.060;21.960;2024-02-04T11:40:45;7.80;80.90
68485;DHT22;55472;50.060;21.960;2024-02-04T11:43:14;7.90;79.50
68485;DHT22;55472;50.060;21.960;2024-02-04T11:45:42;7.80;77.70
68485;DHT22;55472;50.060;21.960;2024-02-04T11:48:10;7.70;76.00
68485;DHT22;55472;50.060;21.960;2024-02-04T11:50:40;7.70;77.10
68485;DHT22;55472;50.060;21.960;2024-02-04T11:53:08;7.80;76.90
68485;DHT22;55472;50.060;21.960;2024-02-04T11:55:38;7.90;77.60
68485;DHT22;55472;50.060;21.960;2024-02-04T11:58:05;8.00;77.50
68485;DHT22;55472;50.060;21.960;2024-02-04T12:00:35;8.30;76.70
68485;DHT22;55472;50.060;21.960;2024-02-04T12:03:03;8.50;76.60
68485;DHT22;55472;50.060;21.960;2024-02-04T12:05:34;8.70;75.10
68485;DHT22;55472;50.060;21.960;2024-02-04T12:08:05;8.80;74.70
68485;DHT22;55472;50.060;21.960;2024-02-04T12:10:34;8.90;74.20
68485;DHT22;55472;50.060;21.960;2024-02-04T12:13:03;8.90;74.30
68485;DHT22;55472;50.060;21.960;2024-02-04T12:15:32;8.90;74.50
68485;DHT22;55472;50.060;21.960;2024-02-04T12:18:07;9.00;74.70
68485;DHT22;55472;50.060;21.960;2024-02-04T12:20:34;9.00;74.20
68485;DHT22;55472;50.060;21.960;2024-02-04T12:23:05;9.00;74.00
68485;DHT22;55472;50.060;21.960;2024-02-04T12:25:32;9.00;73.90
68485;DHT22;55472;50.060;21.960;2024-02-04T12:28:00;9.00;73.50
68485;DHT22;55472;50.060;21.960;2024-02-04T12:30:30;9.10;73.50
68485;DHT22;55472;50.060;21.960;2024-02-04T12:32:58;9.10;73.30
68485;DHT22;55472;50.060;21.960;2024-02-04T12:35:25;9.10;73.10
68485;DHT22;55472;50.060;21.960;2024-02-04T12:37:54;9.30;72.20
68485;DHT22;55472;50.060;21.960;2024-02-04T12:42:57;9.50;71.40
68485;DHT22;55472;50.060;21.960;2024-02-04T12:45:25;9.60;71.20
68485;DHT22;55472;50.060;21.960;2024-02-04T12:47:53;9.60;71.60
68485;DHT22;55472;50.060;21.960;2024-02-04T12:50:20;9.80;71.00
68485;DHT22;55472;50.060;21.960;2024-02-04T12:52:48;9.80;70.40
68485;DHT22;55472;50.060;21.960;2024-02-04T12:55:26;9.90;68.50
68485;DHT22;55472;50.060;21.960;2024-02-04T12:58:11;9.90;69.30
68485;DHT22;55472;50.060;21.960;2024-02-04T13:00:38;9.90;67.90
68485;DHT22;55472;50.060;21.960;2024-02-04T13:03:05;10.00;68.10
68485;DHT22;55472;50.060;21.960;2024-02-04T13:05:34;10.00;66.70
68485;DHT22;55472;50.060;21.960;2024-02-04T13:08:02;10.00;67.00
68485;DHT22;55472;50.060;21.960;2024-02-04T13:10:35;10.00;66.30
68485;DHT22;55472;50.060;21.960;2024-02-04T13:13:08;10.00;64.00
68485;DHT22;55472;50.060;21.960;2024-02-04T13:15:40;9.90;63.10
68485;DHT22;55472;50.060;21.960;2024-02-04T13:18:09;9.70;63.50
68485;DHT22;55472;50.060;21.960;2024-02-04T13:20:37;9.60;64.20
68485;DHT22;55472;50.060;21.960;2024-02-04T13:23:06;9.40;64.40
68485;DHT22;55472;50.060;21.960;2024-02-04T13:25:32;9.20;64.70
68485;DHT22;55472;50.060;21.960;2024-02-04T13:27:58;9.10;65.80
68485;DHT22;55472;50.060;21.960;2024-02-04T13:30:25;9.00;66.40
68485;DHT22;55472;50.060;21.960;2024-02-04T13:32:52;8.90;66.10
68485;DHT22;55472;50.060;21.960;2024-02-04T13:35:27;8.80;66.50
68485;DHT22;55472;50.060;21.960;2024-02-04T13:38:02;8.80;66.70
68485;DHT22;55472;50.060;21.960;2024-02-04T13:40:29;8.70;66.80
68485;DHT22;55472;50.060;21.960;2024-02-04T13:43:06;8.60;67.30
68485;DHT22;55472;50.060;21.960;2024-02-04T13:45:37;8.50;68.10
68485;DHT22;55472;50.060;21.960;2024-02-04T13:48:04;8.50;67.70
68485;DHT22;55472;50.060;21.960;2024-02-04T13:50:40;8.40;67.90
68485;DHT22;55472;50.060;21.960;2024-02-04T13:53:06;8.40;68.30
68485;DHT22;55472;50.060;21.960;2024-02-04T13:55:37;8.40;68.50
68485;DHT22;55472;50.060;21.960;2024-02-04T13:58:08;8.40;68.80
68485;DHT22;55472;50.060;21.960;2024-02-04T14:00:37;8.30;69.20
68485;DHT22;55472;50.060;21.960;2024-02-04T14:03:04;8.30;69.60
68485;DHT22;55472;50.060;21.960;2024-02-04T14:05:34;8.30;69.90
68485;DHT22;55472;50.060;21.960;2024-02-04T14:08:19;8.30;70.30
68485;DHT22;55472;50.060;21.960;2024-02-04T14:10:50;8.20;70.40
68485;DHT22;55472;50.060;21.960;2024-02-04T14:13:34;8.20;71.30
68485;DHT22;55472;50.060;21.960;2024-02-04T14:16:05;8.20;72.00
68485;DHT22;55472;50.060;21.960;2024-02-04T14:18:32;8.10;72.10
68485;DHT22;55472;50.060;21.960;2024-02-04T14:21:00;8.10;72.30
68485;DHT22;55472;50.060;21.960;2024-02-04T14:23:32;8.00;72.60
68485;DHT22;55472;50.060;21.960;2024-02-04T14:25:58;8.00;73.10
68485;DHT22;55472;50.060;21.960;2024-02-04T14:28:32;7.90;73.50
68485;DHT22;55472;50.060;21.960;2024-02-04T14:31:01;7.90;74.10
68485;DHT22;55472;50.060;21.960;2024-02-04T14:33:28;7.80;74.60
68485;DHT22;55472;50.060;21.960;2024-02-04T14:35:54;7.80;75.30
68485;DHT22;55472;50.060;21.960;2024-02-04T14:38:23;7.70;75.80
68485;DHT22;55472;50.060;21.960;2024-02-04T14:40:49;7.60;76.30
68485;DHT22;55472;50.060;21.960;2024-02-04T14:43:15;7.60;77.20
68485;DHT22;55472;50.060;21.960;2024-02-04T14:45:44;7.50;77.60
68485;DHT22;55472;50.060;21.960;2024-02-04T14:48:10;7.50;78.30
68485;DHT22;55472;50.060;21.960;2024-02-04T14:50:36;7.50;79.10
68485;DHT22;55472;50.060;21.960;2024-02-04T14:53:02;7.40;79.80
68485;DHT22;55472;50.060;21.960;2024-02-04T14:55:28;7.40;80.40
68485;DHT22;55472;50.060;21.960;2024-02-04T14:58:15;7.40;81.10
68485;DHT22;55472;50.060;21.960;2024-02-04T15:00:41;7.30;82.20
68485;DHT22;55472;50.060;21.960;2024-02-04T15:03:09;7.30;83.00
68485;DHT22;55472;50.060;21.960;2024-02-04T15:05:35;7.20;83.80
68485;DHT22;55472;50.060;21.960;2024-02-04T15:08:01;7.20;84.40
68485;DHT22;55472;50.060;21.960;2024-02-04T15:10:27;7.10;85.00
68485;DHT22;55472;50.060;21.960;2024-02-04T15:12:54;7.10;85.60
68485;DHT22;55472;50.060;21.960;2024-02-04T15:15:21;7.00;86.10
68485;DHT22;55472;50.060;21.960;2024-02-04T15:17:47;6.90;86.70
68485;DHT22;55472;50.060;21.960;2024-02-04T15:20:14;6.90;87.20
68485;DHT22;55472;50.060;21.960;2024-02-04T15:22:43;6.90;87.80
68485;DHT22;55472;50.060;21.960;2024-02-04T15:25:15;6.80;88.30
68485;DHT22;55472;50.060;21.960;2024-02-04T15:27:43;6.80;88.60
68485;DHT22;55472;50.060;21.960;2024-02-04T15:30:12;6.70;89.20
68485;DHT22;55472;50.060;21.960;2024-02-04T15:32:39;6.70;89.60
68485;DHT22;55472;50.060;21.960;2024-02-04T15:35:06;6.70;90.00
68485;DHT22;55472;50.060;21.960;2024-02-04T15:37:33;6.60;90.30
68485;DHT22;55472;50.060;21.960;2024-02-04T15:39:59;6.60;90.70
68485;DHT22;55472;50.060;21.960;2024-02-04T15:42:26;6.60;91.00
68485;DHT22;55472;50.060;21.960;2024-02-04T15:44:52;6.50;91.20